createdAt,value
2019-02-06T00:00:59.701Z,5.37
2019-02-06T00:04:05.582Z,5.37
2019-02-06T00:07:11.538Z,7.15
2019-02-06T00:10:17.199Z,7.08
2019-02-06T00:13:22.962Z,6.90
2019-02-06T00:16:29.039Z,7.58
2019-02-06T00:19:34.771Z,9.10
2019-02-06T00:22:40.527Z,7.03
2019-02-06T00:25:46.390Z,7.55
2019-02-06T00:28:52.071Z,8.73
2019-02-06T00:31:57.779Z,7.97
2019-02-06T00:35:03.555Z,10.15
2019-02-06T00:38:09.203Z,7.78
2019-02-06T00:41:14.848Z,6.92
2019-02-06T00:44:20.496Z,10.30
2019-02-06T00:47:26.173Z,10.55
2019-02-06T00:50:31.952Z,8.95
2019-02-06T00:53:37.566Z,9.83
2019-02-06T00:56:43.570Z,11.43
2019-02-06T00:59:49.371Z,8.75
2019-02-06T01:02:55.228Z,12.43
2019-02-06T01:06:00.888Z,10.40
2019-02-06T01:09:09.503Z,13.53
2019-02-06T01:12:15.456Z,8.60
2019-02-06T01:15:21.133Z,8.93
2019-02-06T01:18:27.090Z,10.13
2019-02-06T01:21:32.727Z,10.20
2019-02-06T01:24:38.387Z,9.50
2019-02-06T01:27:44.339Z,8.00
2019-02-06T01:30:59.636Z,10.40
2019-02-06T01:34:05.634Z,9.70
2019-02-06T01:37:11.351Z,10.43
2019-02-06T01:40:18.307Z,7.78
2019-02-06T01:43:25.012Z,7.22
2019-02-06T01:46:30.760Z,8.28
2019-02-06T01:49:36.522Z,9.20
2019-02-06T01:52:42.155Z,8.10
2019-02-06T01:55:47.831Z,9.45
2019-02-06T01:58:53.879Z,9.40
2019-02-06T02:01:59.547Z,7.67
2019-02-06T02:05:06.019Z,9.75
2019-02-06T02:08:12.567Z,8.90
2019-02-06T02:11:18.786Z,7.58
2019-02-06T02:14:24.510Z,10.18
2019-02-06T02:17:30.195Z,10.13
2019-02-06T02:20:35.908Z,9.87
2019-02-06T02:23:41.591Z,9.58
2019-02-06T02:26:47.219Z,9.55
2019-02-06T02:29:52.927Z,10.85
2019-02-06T02:32:58.728Z,9.98
2019-02-06T02:36:15.099Z,10.32
2019-02-06T02:39:11.867Z,9.85
2019-02-06T02:42:17.633Z,10.23
2019-02-06T02:45:23.392Z,10.85
2019-02-06T02:48:29.121Z,10.35
2019-02-06T02:51:34.795Z,11.10
2019-02-06T02:54:40.575Z,12.30
2019-02-06T02:57:46.512Z,10.13
2019-02-06T03:01:09.944Z,9.85
2019-02-06T03:04:24.036Z,11.78
2019-02-06T03:07:29.886Z,14.50
2019-02-06T03:10:35.578Z,10.70
2019-02-06T03:13:41.392Z,11.20
2019-02-06T03:16:47.760Z,10.98
2019-02-06T03:19:53.411Z,10.43
2019-02-06T03:22:59.204Z,10.78
2019-02-06T03:26:05.036Z,11.95
2019-02-06T03:29:10.763Z,12.85
2019-02-06T03:32:16.450Z,10.40
2019-02-06T03:35:22.136Z,13.60
2019-02-06T03:38:27.848Z,10.55
2019-02-06T03:41:33.598Z,10.88
2019-02-06T03:44:39.224Z,10.80
2019-02-06T03:47:44.951Z,10.78
2019-02-06T03:50:50.734Z,9.90
2019-02-06T03:53:56.794Z,9.58
2019-02-06T03:57:02.438Z,11.38
2019-02-06T04:00:10.956Z,9.83
2019-02-06T04:03:16.607Z,10.88
2019-02-06T04:06:22.376Z,10.03
2019-02-06T04:09:28.230Z,10.05
2019-02-06T04:12:33.895Z,9.85
2019-02-06T04:15:39.552Z,9.53
2019-02-06T04:18:45.179Z,10.80
2019-02-06T04:21:50.835Z,9.88
2019-02-06T04:24:56.483Z,9.65
2019-02-06T04:28:02.147Z,9.33
2019-02-06T04:31:07.801Z,9.73
2019-02-06T04:34:13.967Z,10.37
2019-02-06T04:37:19.651Z,9.68
2019-02-06T04:40:25.470Z,10.75
2019-02-06T04:43:31.235Z,11.33
2019-02-06T04:46:36.888Z,10.53
2019-02-06T04:49:42.529Z,8.67
2019-02-06T04:52:48.326Z,8.48
2019-02-06T04:55:54.255Z,10.85
2019-02-06T04:58:59.908Z,10.60
2019-02-06T05:02:05.852Z,7.80
2019-02-06T05:05:11.808Z,8.87
2019-02-06T05:08:17.571Z,9.87
2019-02-06T05:11:23.227Z,11.47
2019-02-06T05:14:29.283Z,8.53
2019-02-06T05:17:35.972Z,8.73
2019-02-06T05:20:42.338Z,8.63
2019-02-06T05:23:48.298Z,9.33
2019-02-06T05:26:54.370Z,7.35
2019-02-06T05:30:00.278Z,8.13
2019-02-06T05:33:06.004Z,7.65
2019-02-06T05:36:11.731Z,8.27
2019-02-06T05:39:17.503Z,6.90
2019-02-06T05:42:23.123Z,7.65
2019-02-06T05:45:30.174Z,7.90
2019-02-06T05:48:35.880Z,7.25
2019-02-06T05:51:41.619Z,7.20
2019-02-06T05:54:47.353Z,5.47
2019-02-06T05:57:53.248Z,6.40
2019-02-06T06:00:59.033Z,7.30
2019-02-06T06:04:04.752Z,7.07
2019-02-06T06:07:10.635Z,6.90
2019-02-06T06:10:17.177Z,7.93
2019-02-06T06:13:23.153Z,5.65
2019-02-06T06:16:30.043Z,5.67
2019-02-06T06:19:35.671Z,6.27
2019-02-06T06:22:41.623Z,5.62
2019-02-06T06:25:47.291Z,6.25
2019-02-06T06:28:52.989Z,6.87
2019-02-06T06:31:58.698Z,6.83
2019-02-06T06:35:04.484Z,6.28
2019-02-06T06:38:10.200Z,7.50
2019-02-06T06:41:15.892Z,6.63
2019-02-06T06:44:21.514Z,6.75
2019-02-06T06:47:27.172Z,6.30
2019-02-06T06:50:32.962Z,6.25
2019-02-06T06:53:38.659Z,5.53
2019-02-06T06:56:44.539Z,5.22
2019-02-06T06:59:50.187Z,5.80
2019-02-06T07:02:56.083Z,7.00
2019-02-06T07:06:01.902Z,6.67
2019-02-06T07:09:09.747Z,5.92
2019-02-06T07:12:15.459Z,7.12
2019-02-06T07:15:23.402Z,6.25
2019-02-06T07:18:29.129Z,7.45
2019-02-06T07:21:34.893Z,8.75
2019-02-06T07:24:40.627Z,15.10
2019-02-06T07:27:46.762Z,7.10
2019-02-06T07:30:54.191Z,12.18
2019-02-06T07:34:00.499Z,48.33
2019-02-06T07:37:07.239Z,59.25
2019-02-06T07:40:13.030Z,74.37
2019-02-06T07:43:18.736Z,16.40
2019-02-06T07:46:24.391Z,15.38
2019-02-06T07:49:30.059Z,13.85
2019-02-06T07:52:35.711Z,18.67
2019-02-06T07:55:41.459Z,12.07
2019-02-06T07:58:47.223Z,12.47
2019-02-06T08:01:52.967Z,13.72
2019-02-06T08:04:58.615Z,11.28
2019-02-06T08:08:04.779Z,17.27
2019-02-06T08:11:10.544Z,9.43
2019-02-06T08:14:16.509Z,15.58
2019-02-06T08:17:22.266Z,13.90
2019-02-06T08:20:27.907Z,12.55
2019-02-06T08:23:34.411Z,27.35
2019-02-06T08:26:40.258Z,25.45
2019-02-06T08:29:52.894Z,18.12
2019-02-06T08:32:59.590Z,15.98
2019-02-06T08:36:10.212Z,14.83
2019-02-06T08:39:16.465Z,15.72
2019-02-06T08:42:22.777Z,16.65
2019-02-06T08:45:30.189Z,10.43
2019-02-06T08:48:41.333Z,9.30
2019-02-06T08:51:48.515Z,16.97
2019-02-06T08:54:54.982Z,10.30
2019-02-06T08:58:08.461Z,8.30
2019-02-06T09:01:13.500Z,7.80
2019-02-06T09:04:20.361Z,8.20
2019-02-06T09:07:29.608Z,7.53
2019-02-06T09:10:38.553Z,8.38
2019-02-06T09:13:45.687Z,8.50
2019-02-06T09:16:52.352Z,24.98
2019-02-06T09:19:58.440Z,15.48
2019-02-06T09:23:04.697Z,25.20
2019-02-06T09:26:12.716Z,19.80
2019-02-06T09:29:18.464Z,20.77
2019-02-06T09:32:24.444Z,22.60
2019-02-06T09:35:31.086Z,21.68
2019-02-06T09:38:37.064Z,20.27
2019-02-06T09:41:43.032Z,22.45
2019-02-06T09:44:49.356Z,22.73
2019-02-06T09:47:55.371Z,19.80
2019-02-06T09:51:01.737Z,20.52
2019-02-06T09:54:07.709Z,20.97
2019-02-06T09:57:13.647Z,18.77
2019-02-06T10:00:24.873Z,22.35
2019-02-06T10:03:30.892Z,15.05
2019-02-06T10:06:36.856Z,15.15
2019-02-06T10:09:42.809Z,15.95
2019-02-06T10:12:48.882Z,17.12
2019-02-06T10:15:55.660Z,14.63
2019-02-06T10:19:01.832Z,12.33
2019-02-06T10:22:07.978Z,10.15
2019-02-06T10:25:13.984Z,10.35
2019-02-06T10:28:20.004Z,7.58
2019-02-06T10:31:25.899Z,9.23
2019-02-06T10:34:31.724Z,7.75
2019-02-06T10:37:37.836Z,13.75
2019-02-06T10:40:43.634Z,7.95
2019-02-06T10:43:49.606Z,10.63
2019-02-06T10:46:55.664Z,10.68
2019-02-06T10:50:01.462Z,8.40
2019-02-06T10:53:07.976Z,8.20
2019-02-06T10:56:13.993Z,7.37
2019-02-06T10:59:19.908Z,7.20
2019-02-06T11:02:26.012Z,7.33
2019-02-06T11:05:32.044Z,8.90
2019-02-06T11:08:38.161Z,8.20
2019-02-06T11:11:43.963Z,7.72
2019-02-06T11:14:50.118Z,6.40
2019-02-06T11:17:56.084Z,9.13
2019-02-06T11:21:02.060Z,7.22
2019-02-06T11:24:08.861Z,4.92
2019-02-06T11:27:14.719Z,8.30
2019-02-06T11:30:25.460Z,7.12
2019-02-06T11:33:31.357Z,7.47
2019-02-06T11:36:37.384Z,6.85
2019-02-06T11:39:43.404Z,6.40
2019-02-06T11:42:49.397Z,4.80
2019-02-06T11:45:55.292Z,5.72
2019-02-06T11:49:01.134Z,6.40
2019-02-06T11:52:07.212Z,5.28
2019-02-06T11:55:15.897Z,9.03
2019-02-06T11:58:21.649Z,5.35
2019-02-06T12:01:30.892Z,5.92
2019-02-06T12:04:37.213Z,4.55
2019-02-06T12:07:43.216Z,4.95
2019-02-06T12:10:49.577Z,4.53
2019-02-06T12:13:55.356Z,5.58
2019-02-06T12:17:01.202Z,4.53
2019-02-06T12:20:09.928Z,4.35
2019-02-06T12:23:15.689Z,4.53
2019-02-06T12:26:21.736Z,4.12
2019-02-06T12:29:27.496Z,3.87
2019-02-06T12:32:33.557Z,4.95
2019-02-06T12:35:39.720Z,3.60
2019-02-06T12:38:53.215Z,3.58
2019-02-06T12:41:52.873Z,4.05
2019-02-06T12:44:59.884Z,3.62
2019-02-06T12:48:06.228Z,4.67
2019-02-06T12:51:12.089Z,4.17
2019-02-06T12:54:19.600Z,4.03
2019-02-06T12:57:36.047Z,3.83
2019-02-06T13:00:33.952Z,3.40
2019-02-06T13:03:39.928Z,3.12
2019-02-06T13:06:45.565Z,3.45
2019-02-06T13:09:51.827Z,3.17
2019-02-06T13:12:58.155Z,2.95
2019-02-06T13:16:04.069Z,4.45
2019-02-06T13:19:09.926Z,3.52
2019-02-06T13:22:15.676Z,4.72
2019-02-06T13:25:21.841Z,11.78
2019-02-06T13:28:39.212Z,4.92
2019-02-06T13:31:45.234Z,6.10
2019-02-06T13:34:51.200Z,3.35
2019-02-06T13:37:57.249Z,8.40
2019-02-06T13:41:03.116Z,5.37
2019-02-06T13:44:08.866Z,5.30
2019-02-06T13:47:15.140Z,4.42
2019-02-06T13:50:22.444Z,5.78
2019-02-06T13:53:28.276Z,5.47
2019-02-06T13:56:34.245Z,4.08
2019-02-06T13:59:40.104Z,4.20
2019-02-06T14:02:46.160Z,4.85
2019-02-06T14:05:52.130Z,4.60
2019-02-06T14:08:57.868Z,4.58
2019-02-06T14:12:03.735Z,4.42
2019-02-06T14:15:11.766Z,5.75
2019-02-06T14:18:17.902Z,4.20
2019-02-06T14:21:23.864Z,4.30
2019-02-06T14:24:55.328Z,4.53
2019-02-06T14:28:31.952Z,3.00
2019-02-06T14:31:54.456Z,4.58
2019-02-06T14:35:25.404Z,7.92
2019-02-06T14:39:05.633Z,2.67
2019-02-06T14:42:33.028Z,4.28
2019-02-06T14:46:11.694Z,3.87
2019-02-06T14:50:07.889Z,4.00
2019-02-06T14:53:51.021Z,6.22
2019-02-06T14:57:50.032Z,4.37
2019-02-06T15:01:45.354Z,3.62
2019-02-06T15:05:27.887Z,3.87
2019-02-06T15:09:10.272Z,4.70
2019-02-06T15:12:38.352Z,5.15
2019-02-06T15:16:40.429Z,3.95
2019-02-06T15:20:14.348Z,3.25
2019-02-06T15:24:16.216Z,6.08
2019-02-06T15:27:47.984Z,4.87
2019-02-06T15:31:25.580Z,3.90
2019-02-06T15:34:58.380Z,2.70
2019-02-06T15:38:42.220Z,4.22
2019-02-06T15:42:12.941Z,7.20
2019-02-06T15:45:58.034Z,3.98
2019-02-06T15:49:17.789Z,2.70
2019-02-06T15:52:41.728Z,3.55
2019-02-06T15:56:40.613Z,3.47
2019-02-06T16:00:15.469Z,4.10
2019-02-06T16:04:18.795Z,2.37
2019-02-06T16:08:08.254Z,2.27
2019-02-06T16:11:44.832Z,4.20
2019-02-06T16:15:25.203Z,3.20
2019-02-06T16:19:11.345Z,4.95
2019-02-06T16:22:38.660Z,3.00
2019-02-06T16:26:05.201Z,2.25
2019-02-06T16:29:32.733Z,3.10
2019-02-06T16:33:14.470Z,3.60
2019-02-06T16:37:07.170Z,2.87
2019-02-06T16:41:03.603Z,4.55
2019-02-06T16:44:48.645Z,4.97
2019-02-06T16:48:40.481Z,2.85
2019-02-06T16:52:48.288Z,3.10
2019-02-06T16:56:26.406Z,3.15
2019-02-06T17:00:21.013Z,3.10
2019-02-06T17:04:15.089Z,3.65
2019-02-06T17:08:16.756Z,3.45
2019-02-06T17:12:09.309Z,2.87
2019-02-06T17:15:36.600Z,2.77
2019-02-06T17:18:59.114Z,4.15
2019-02-06T17:22:39.280Z,4.78
2019-02-06T17:26:08.181Z,3.35
2019-02-06T17:29:50.388Z,4.42
2019-02-06T17:33:15.428Z,2.75
2019-02-06T17:37:02.008Z,2.87
2019-02-06T17:40:28.549Z,2.85
2019-02-06T17:44:27.736Z,3.10
2019-02-06T17:48:03.712Z,2.80
2019-02-06T17:51:41.120Z,2.95
2019-02-06T17:55:19.024Z,3.02
2019-02-06T17:58:24.985Z,4.40
2019-02-06T18:01:43.541Z,5.25
2019-02-06T18:04:50.024Z,3.08
2019-02-06T18:07:56.893Z,3.12
2019-02-06T18:11:02.853Z,3.55
2019-02-06T18:14:08.820Z,4.50
2019-02-06T18:17:14.876Z,3.17
2019-02-06T18:20:20.828Z,2.67
2019-02-06T18:23:26.693Z,2.90
2019-02-06T18:26:32.552Z,2.85
2019-02-06T18:29:38.408Z,5.08
2019-02-06T18:32:44.372Z,4.22
2019-02-06T18:35:50.333Z,2.83
2019-02-06T18:38:56.079Z,3.08
2019-02-06T18:42:02.240Z,2.95
2019-02-06T18:45:11.732Z,5.12
2019-02-06T18:48:21.233Z,3.50
2019-02-06T18:51:27.196Z,2.90
2019-02-06T18:54:33.157Z,3.17
2019-02-06T18:57:39.012Z,3.50
2019-02-06T19:00:44.845Z,3.83
2019-02-06T19:03:50.864Z,3.80
2019-02-06T19:06:56.784Z,3.08
2019-02-06T19:10:02.792Z,4.72
2019-02-06T19:13:08.858Z,4.08
2019-02-06T19:16:15.162Z,4.00
2019-02-06T19:19:25.481Z,5.15
2019-02-06T19:22:29.148Z,3.77
2019-02-06T19:25:35.152Z,4.40
2019-02-06T19:28:42.592Z,3.08
2019-02-06T19:31:48.552Z,3.75
2019-02-06T19:34:54.325Z,3.55
2019-02-06T19:38:00.421Z,3.12
2019-02-06T19:41:07.404Z,5.62
2019-02-06T19:44:13.328Z,3.35
2019-02-06T19:47:19.189Z,13.10
2019-02-06T19:50:27.397Z,14.00
2019-02-06T19:53:33.464Z,11.97
2019-02-06T19:56:39.360Z,10.38
2019-02-06T19:59:45.272Z,9.33
2019-02-06T20:02:58.433Z,7.62
2019-02-06T20:06:05.724Z,7.47
2019-02-06T20:09:12.889Z,7.90
2019-02-06T20:12:18.892Z,5.60
2019-02-06T20:15:25.002Z,7.67
2019-02-06T20:18:33.015Z,7.08
2019-02-06T20:21:40.544Z,4.85
2019-02-06T20:24:46.364Z,6.50
2019-02-06T20:27:53.446Z,5.12
2019-02-06T20:30:59.548Z,6.87
2019-02-06T20:34:05.474Z,6.00
2019-02-06T20:37:11.376Z,7.10
2019-02-06T20:40:22.213Z,10.75
2019-02-06T20:43:28.068Z,5.83
2019-02-06T20:46:33.974Z,6.50
2019-02-06T20:49:39.780Z,8.18
2019-02-06T20:52:45.781Z,9.40
2019-02-06T20:55:51.616Z,7.10
2019-02-06T20:58:57.352Z,5.47
2019-02-06T21:02:03.052Z,4.97
2019-02-06T21:05:10.508Z,6.65
2019-02-06T21:08:16.504Z,5.90
2019-02-06T21:11:22.424Z,6.75
2019-02-06T21:14:28.284Z,6.70
2019-02-06T21:17:34.191Z,7.10
2019-02-06T21:20:40.100Z,8.68
2019-02-06T21:23:46.004Z,8.95
2019-02-06T21:26:51.710Z,6.87
2019-02-06T21:29:57.621Z,10.15
2019-02-06T21:33:03.744Z,7.97
2019-02-06T21:36:09.625Z,8.48
2019-02-06T21:39:15.492Z,4.30
2019-02-06T21:42:21.453Z,5.55
2019-02-06T21:45:27.698Z,6.45
2019-02-06T21:48:33.578Z,6.90
2019-02-06T21:51:39.388Z,6.47
2019-02-06T21:54:46.043Z,5.42
2019-02-06T21:57:52.339Z,4.75
2019-02-06T22:00:58.097Z,5.47
2019-02-06T22:04:04.876Z,5.72
2019-02-06T22:07:10.661Z,5.10
2019-02-06T22:10:17.507Z,5.17
2019-02-06T22:13:23.404Z,6.30
2019-02-06T22:16:29.745Z,5.00
2019-02-06T22:19:35.916Z,5.53
2019-02-06T22:22:42.952Z,5.50
2019-02-06T22:25:49.976Z,4.45
2019-02-06T22:28:56.044Z,11.10
2019-02-06T22:32:02.006Z,7.17
2019-02-06T22:35:08.580Z,5.15
2019-02-06T22:38:14.636Z,5.90
2019-02-06T22:41:20.697Z,7.12
2019-02-06T22:44:26.761Z,4.60
2019-02-06T22:47:34.070Z,7.50
2019-02-06T22:50:40.217Z,8.03
2019-02-06T22:53:46.381Z,8.78
2019-02-06T22:56:55.007Z,15.03
2019-02-06T23:00:00.252Z,17.70
2019-02-06T23:03:07.781Z,13.50
2019-02-06T23:06:14.219Z,17.00
2019-02-06T23:09:20.692Z,11.80
2019-02-06T23:12:27.402Z,16.93
2019-02-06T23:15:33.424Z,8.60
2019-02-06T23:18:39.392Z,8.23
2019-02-06T23:21:46.375Z,11.73
2019-02-06T23:24:52.536Z,8.05
2019-02-06T23:27:58.540Z,7.70
2019-02-06T23:31:04.972Z,7.10
2019-02-06T23:34:11.032Z,9.48
2019-02-06T23:37:16.992Z,5.92
2019-02-06T23:40:23.052Z,6.70
2019-02-06T23:43:29.056Z,7.47
2019-02-06T23:46:35.084Z,5.60
2019-02-06T23:49:41.035Z,6.87
2019-02-06T23:52:47.302Z,6.60
2019-02-06T23:55:53.464Z,7.17
2019-02-06T23:58:59.568Z,7.60
